Time;durP1;ratioP1;P1;durP2;ratioP2;P2;SDS_P1;SDS_P2;PMS_P1;PMS_P2;Temp;Humidity;BMP_temperature;BMP_pressure;BME280_temperature;BME280_humidity;BME280_pressure;Samples;Min_cycle;Max_cycle;Signal;HPM_P1;HPM_P2
2021/09/10 00:01:12;;;;;;;12.63;9.97;;;14.60;99.90;;;;;;5017944;28;20668;-60
2021/09/10 00:03:38;;;;;;;14.73;9.97;;;14.60;99.90;;;;;;5014470;28;20455;-60
2021/09/10 00:06:04;;;;;;;15.33;10.43;;;14.60;99.90;;;;;;5007767;28;20515;-59
2021/09/10 00:08:29;;;;;;;13.73;10.73;;;14.60;99.90;;;;;;5002079;28;20241;-58
2021/09/10 00:10:55;;;;;;;16.63;10.40;;;14.60;99.90;;;;;;4994379;28;20177;-59
2021/09/10 00:13:21;;;;;;;13.80;10.30;;;14.60;99.90;;;;;;4997148;28;20216;-58
2021/09/10 00:15:46;;;;;;;12.17;9.80;;;14.60;99.90;;;;;;5000345;28;20199;-58
2021/09/10 00:18:12;;;;;;;11.70;9.30;;;14.60;99.90;;;;;;4994310;28;20181;-59
2021/09/10 00:20:38;;;;;;;15.20;11.23;;;14.60;99.90;;;;;;5013313;28;20182;-59
2021/09/10 00:23:04;;;;;;;11.33;9.07;;;14.60;99.90;;;;;;5007670;28;20172;-59
2021/09/10 00:25:29;;;;;;;11.53;9.63;;;14.60;99.90;;;;;;4996821;28;20718;-59
2021/09/10 00:27:55;;;;;;;11.20;9.63;;;14.60;99.90;;;;;;4998221;28;20251;-59
2021/09/10 00:30:21;;;;;;;13.50;9.93;;;14.60;99.90;;;;;;4994201;28;20219;-58
2021/09/10 00:32:46;;;;;;;14.67;9.80;;;14.60;99.90;;;;;;4996882;28;20646;-58
2021/09/10 00:35:12;;;;;;;11.27;9.87;;;14.60;99.90;;;;;;4996576;28;20205;-58
2021/09/10 00:37:38;;;;;;;15.53;9.43;;;14.60;99.90;;;;;;4998193;28;20173;-58
2021/09/10 00:40:05;;;;;;;12.50;9.73;;;14.50;99.90;;;;;;4993172;28;20184;-59
2021/09/10 00:42:31;;;;;;;14.10;9.70;;;14.50;99.90;;;;;;4998532;28;20443;-61
2021/09/10 00:44:57;;;;;;;12.87;9.70;;;14.50;99.90;;;;;;4993416;28;20483;-58
2021/09/10 00:47:23;;;;;;;14.27;10.00;;;14.50;99.90;;;;;;5000458;28;20299;-58
2021/09/10 00:49:50;;;;;;;12.57;9.70;;;14.50;99.90;;;;;;4998221;28;20460;-59
2021/09/10 00:52:18;;;;;;;11.83;10.53;;;14.50;99.90;;;;;;4999618;28;20416;-58
2021/09/10 00:54:44;;;;;;;13.90;9.53;;;14.50;99.90;;;;;;5000582;28;20446;-58
2021/09/10 00:57:10;;;;;;;15.30;11.40;;;14.50;99.90;;;;;;5015505;28;22693;-58
2021/09/10 00:59:36;;;;;;;14.53;10.37;;;14.50;99.90;;;;;;5016144;28;20440;-58
2021/09/10 01:02:02;;;;;;;14.83;10.90;;;14.50;99.90;;;;;;4999840;28;20493;-57
2021/09/10 01:04:28;;;;;;;12.30;9.97;;;14.50;99.90;;;;;;4996029;28;20444;-57
2021/09/10 01:06:55;;;;;;;13.80;9.50;;;14.40;99.90;;;;;;4998731;28;20466;-58
2021/09/10 01:09:21;;;;;;;12.40;10.10;;;14.40;99.90;;;;;;4992472;28;20192;-59
2021/09/10 01:11:49;;;;;;;12.20;10.10;;;14.40;99.90;;;;;;4991821;28;20435;-59
2021/09/10 01:14:16;;;;;;;12.30;10.50;;;14.40;99.90;;;;;;4995233;28;20435;-59
2021/09/10 01:16:42;;;;;;;16.27;10.50;;;14.40;99.90;;;;;;5015754;28;20437;-58
2021/09/10 01:19:08;;;;;;;13.77;9.33;;;14.40;99.90;;;;;;4995555;28;20420;-59
2021/09/10 01:21:34;;;;;;;12.80;10.37;;;14.40;99.90;;;;;;4992900;28;20490;-58
2021/09/10 01:24:01;;;;;;;16.07;10.27;;;14.40;99.90;;;;;;5011085;28;20291;-59
2021/09/10 01:26:27;;;;;;;13.53;10.47;;;14.30;99.90;;;;;;4993913;28;20177;-60
2021/09/10 01:28:54;;;;;;;11.77;9.93;;;14.30;99.90;;;;;;4997484;28;20464;-59
2021/09/10 01:31:20;;;;;;;12.17;9.23;;;14.30;99.90;;;;;;5003877;28;20404;-60
2021/09/10 01:33:45;;;;;;;13.87;10.23;;;14.30;99.90;;;;;;4998530;28;20463;-59
2021/09/10 01:36:14;;;;;;;11.80;9.43;;;14.30;99.90;;;;;;4992780;28;20704;-59
2021/09/10 01:38:40;;;;;;;15.50;9.37;;;14.30;99.90;;;;;;4997190;28;20180;-59
2021/09/10 01:41:06;;;;;;;13.80;10.20;;;14.30;99.90;;;;;;4988776;28;21051;-58
2021/09/10 01:43:31;;;;;;;14.23;9.60;;;14.20;99.90;;;;;;4998179;28;20205;-58
2021/09/10 01:45:57;;;;;;;17.90;9.10;;;14.20;99.90;;;;;;5017772;22;20247;-60
2021/09/10 01:48:23;;;;;;;12.70;9.53;;;14.20;99.90;;;;;;5019105;28;20196;-59
2021/09/10 01:50:48;;;;;;;13.00;9.00;;;14.20;99.90;;;;;;5020884;28;20584;-60
2021/09/10 01:53:14;;;;;;;12.97;8.23;;;14.20;99.90;;;;;;5018640;28;20199;-60
2021/09/10 01:55:40;;;;;;;12.40;9.10;;;14.20;99.90;;;;;;5019122;28;20268;-60
2021/09/10 01:58:05;;;;;;;11.40;9.00;;;14.20;99.90;;;;;;5007892;28;20279;-60
2021/09/10 02:00:31;;;;;;;12.20;9.03;;;14.20;99.90;;;;;;5025572;28;20179;-60
2021/09/10 02:02:57;;;;;;;14.97;8.93;;;14.20;99.90;;;;;;5026367;28;20687;-59
2021/09/10 02:05:22;;;;;;;10.97;8.93;;;14.20;99.90;;;;;;5024621;28;20286;-60
2021/09/10 02:07:48;;;;;;;12.70;8.57;;;14.20;99.90;;;;;;5023945;28;20199;-60
2021/09/10 02:10:16;;;;;;;11.07;8.97;;;14.20;99.90;;;;;;5026460;28;20184;-59
2021/09/10 02:12:42;;;;;;;16.77;9.50;;;14.20;99.90;;;;;;5017123;28;20172;-60
2021/09/10 02:15:09;;;;;;;11.87;9.13;;;14.20;99.90;;;;;;5018743;28;20454;-60
2021/09/10 02:17:35;;;;;;;13.77;9.67;;;14.20;99.90;;;;;;5020348;28;20442;-59
2021/09/10 02:20:00;;;;;;;12.63;9.60;;;14.20;99.90;;;;;;5004093;28;20434;-59
2021/09/10 02:22:26;;;;;;;14.67;9.63;;;14.20;99.90;;;;;;5007347;28;20215;-60
2021/09/10 02:24:51;;;;;;;11.80;9.60;;;14.20;99.90;;;;;;5018986;28;20176;-60
2021/09/10 02:27:17;;;;;;;14.83;10.30;;;14.20;99.90;;;;;;5022221;28;20493;-60
2021/09/10 02:29:43;;;;;;;12.40;10.10;;;14.20;99.90;;;;;;5018378;28;20352;-61
2021/09/10 02:32:09;;;;;;;12.40;9.57;;;14.20;99.90;;;;;;5020088;28;20184;-60
2021/09/10 02:34:34;;;;;;;13.30;9.37;;;14.20;99.90;;;;;;5021849;28;20192;-60
2021/09/10 02:37:00;;;;;;;14.83;10.30;;;14.20;99.90;;;;;;5020723;28;20227;-60
2021/09/10 02:39:26;;;;;;;15.13;10.63;;;14.20;99.90;;;;;;5004938;28;20191;-60
2021/09/10 02:41:52;;;;;;;19.73;10.10;;;14.20;99.90;;;;;;5019637;28;20192;-60
2021/09/10 02:44:17;;;;;;;11.43;9.63;;;14.20;99.90;;;;;;5019134;28;20331;-60
2021/09/10 02:46:43;;;;;;;11.80;9.73;;;14.20;99.90;;;;;;5003076;28;20208;-60
2021/09/10 02:49:09;;;;;;;14.00;10.20;;;14.20;99.90;;;;;;5001366;28;20180;-60
2021/09/10 02:51:35;;;;;;;17.13;9.60;;;14.20;99.90;;;;;;5022505;28;20218;-60
2021/09/10 02:54:00;;;;;;;13.00;10.73;;;14.20;99.90;;;;;;5009261;28;20176;-60
2021/09/10 02:56:26;;;;;;;19.03;10.40;;;14.20;99.90;;;;;;5025054;28;20203;-60
2021/09/10 02:58:52;;;;;;;14.80;11.17;;;14.20;99.90;;;;;;5025130;28;20176;-60
2021/09/10 03:01:18;;;;;;;14.40;10.33;;;14.30;99.90;;;;;;5025574;28;20802;-60
2021/09/10 03:03:44;;;;;;;14.20;11.23;;;14.30;99.90;;;;;;5022271;28;20434;-60
2021/09/10 03:06:10;;;;;;;14.30;11.20;;;14.20;99.90;;;;;;5023508;28;20234;-61
2021/09/10 03:08:36;;;;;;;20.70;11.00;;;14.30;99.90;;;;;;5012669;28;20223;-61
2021/09/10 03:11:02;;;;;;;13.13;10.40;;;14.20;99.90;;;;;;5022638;28;20498;-60
2021/09/10 03:13:28;;;;;;;13.67;10.10;;;14.30;99.90;;;;;;5005249;28;20178;-60
2021/09/10 03:15:53;;;;;;;12.77;10.13;;;14.30;99.90;;;;;;5024006;28;20278;-60
2021/09/10 03:18:19;;;;;;;14.67;11.33;;;14.30;99.90;;;;;;5020442;28;20523;-60
2021/09/10 03:20:45;;;;;;;16.37;10.40;;;14.30;99.90;;;;;;5022772;28;20184;-60
2021/09/10 03:23:11;;;;;;;12.00;9.77;;;14.20;99.90;;;;;;5022417;28;20171;-60
2021/09/10 03:25:36;;;;;;;12.20;10.10;;;14.20;99.90;;;;;;5001534;28;20204;-59
2021/09/10 03:28:03;;;;;;;15.00;9.43;;;14.20;99.90;;;;;;5023872;28;20214;-60
2021/09/10 03:30:28;;;;;;;13.70;10.07;;;14.20;99.90;;;;;;5025392;28;20542;-60
2021/09/10 03:32:54;;;;;;;16.60;9.87;;;14.20;99.90;;;;;;5028370;28;20494;-60
2021/09/10 03:35:20;;;;;;;16.67;10.00;;;14.20;99.90;;;;;;5022998;28;20278;-60
2021/09/10 03:37:46;;;;;;;11.87;9.10;;;14.20;99.90;;;;;;5031353;28;20182;-60
2021/09/10 03:40:12;;;;;;;16.07;10.17;;;14.20;99.90;;;;;;5010983;28;20187;-60
2021/09/10 03:42:38;;;;;;;14.53;10.10;;;14.20;99.90;;;;;;5020452;28;20419;-60
2021/09/10 03:45:05;;;;;;;13.17;9.53;;;14.20;99.90;;;;;;5029143;28;20521;-60
2021/09/10 03:47:30;;;;;;;19.33;10.03;;;14.20;99.90;;;;;;5027835;28;20195;-60
2021/09/10 03:49:56;;;;;;;14.63;9.50;;;14.20;99.90;;;;;;5030447;28;20472;-60
2021/09/10 03:52:22;;;;;;;13.50;10.17;;;14.20;99.90;;;;;;5013528;28;20172;-60
2021/09/10 03:54:47;;;;;;;12.00;9.33;;;14.20;99.90;;;;;;5026910;28;20215;-60
2021/09/10 03:57:13;;;;;;;14.20;9.93;;;14.10;99.90;;;;;;5012030;28;20183;-60
2021/09/10 03:59:39;;;;;;;17.70;10.33;;;14.20;99.90;;;;;;5028877;28;20556;-60
2021/09/10 04:02:05;;;;;;;13.00;10.70;;;14.20;99.90;;;;;;5016785;28;20186;-61
2021/09/10 04:04:30;;;;;;;14.47;10.83;;;14.20;99.90;;;;;;5018781;28;20238;-60
2021/09/10 04:06:56;;;;;;;17.00;10.40;;;14.20;99.90;;;;;;5029873;28;20561;-60
2021/09/10 04:09:21;;;;;;;11.63;9.97;;;14.20;99.90;;;;;;5022976;28;20176;-60
2021/09/10 04:11:47;;;;;;;15.60;11.03;;;14.20;99.90;;;;;;5029304;28;20434;-59
2021/09/10 04:14:13;;;;;;;13.77;10.83;;;14.20;99.90;;;;;;5029136;28;20173;-60
2021/09/10 04:16:38;;;;;;;16.50;11.53;;;14.20;99.90;;;;;;5027848;28;20212;-60
2021/09/10 04:19:04;;;;;;;16.97;11.80;;;14.20;99.90;;;;;;5016583;28;20686;-60
2021/09/10 04:21:30;;;;;;;15.73;10.80;;;14.20;99.90;;;;;;5029708;28;20728;-60
2021/09/10 04:23:56;;;;;;;14.47;11.17;;;14.20;99.90;;;;;;5012224;28;20830;-60
2021/09/10 04:26:22;;;;;;;18.60;10.87;;;14.20;99.90;;;;;;5008213;28;20443;-60
2021/09/10 04:28:48;;;;;;;16.50;10.73;;;14.20;99.90;;;;;;5028365;28;20282;-60
2021/09/10 04:31:17;;;;;;;14.67;10.90;;;14.20;99.90;;;;;;5025875;28;20272;-60
2021/09/10 04:33:46;;;;;;;14.33;11.00;;;14.20;99.90;;;;;;5024082;28;20431;-60
2021/09/10 04:36:15;;;;;;;14.43;10.70;;;14.20;99.90;;;;;;5028004;28;20451;-61
2021/09/10 04:38:41;;;;;;;16.60;11.07;;;14.20;99.90;;;;;;5026644;28;20425;-60
2021/09/10 04:41:06;;;;;;;13.40;10.60;;;14.20;99.90;;;;;;5028659;28;20783;-60
2021/09/10 04:43:32;;;;;;;16.90;11.70;;;14.20;99.90;;;;;;5007826;28;20725;-60
2021/09/10 04:45:57;;;;;;;16.70;10.40;;;14.20;99.90;;;;;;5018944;28;20215;-60
2021/09/10 04:48:23;;;;;;;13.97;11.20;;;14.20;99.90;;;;;;5022629;28;20615;-59
2021/09/10 04:50:49;;;;;;;21.47;11.63;;;14.20;99.90;;;;;;5027933;28;20168;-60
2021/09/10 04:53:15;;;;;;;15.83;11.07;;;14.30;99.90;;;;;;5019973;28;20645;-58
2021/09/10 04:55:40;;;;;;;15.37;10.90;;;14.20;99.90;;;;;;5018044;28;20468;-59
2021/09/10 04:58:06;;;;;;;14.30;10.83;;;14.30;99.90;;;;;;5027882;28;20211;-57
2021/09/10 05:00:32;;;;;;;19.53;11.80;;;14.20;99.90;;;;;;5026021;28;20701;-59
2021/09/10 05:02:57;;;;;;;15.33;10.93;;;14.20;99.90;;;;;;5008296;28;20191;-59
2021/09/10 05:05:23;;;;;;;20.63;11.63;;;14.30;99.90;;;;;;5024302;28;20282;-60
2021/09/10 05:07:49;;;;;;;17.33;11.70;;;14.30;99.90;;;;;;5011050;28;20195;-60
2021/09/10 05:10:14;;;;;;;14.80;11.20;;;14.30;99.90;;;;;;5026693;28;20171;-60
2021/09/10 05:12:40;;;;;;;13.97;11.50;;;14.30;99.90;;;;;;5028158;28;20175;-59
2021/09/10 05:15:07;;;;;;;15.50;10.70;;;14.30;99.90;;;;;;5028230;28;20214;-60
2021/09/10 05:17:33;;;;;;;15.93;11.20;;;14.30;99.90;;;;;;5028905;28;20187;-59
2021/09/10 05:20:00;;;;;;;17.73;11.30;;;14.30;99.90;;;;;;5010907;28;20446;-59
2021/09/10 05:22:26;;;;;;;13.90;10.90;;;14.30;99.90;;;;;;5020989;28;20191;-61
2021/09/10 05:24:52;;;;;;;13.00;10.70;;;14.30;99.90;;;;;;5008887;28;20801;-60
2021/09/10 05:27:17;;;;;;;14.40;10.83;;;14.40;99.90;;;;;;5025173;28;20278;-59
2021/09/10 05:29:43;;;;;;;15.50;11.20;;;14.40;99.90;;;;;;5008379;28;20435;-59
2021/09/10 05:32:09;;;;;;;16.47;10.73;;;14.40;99.90;;;;;;5018568;28;20172;-59
2021/09/10 05:34:34;;;;;;;14.10;11.37;;;14.50;99.90;;;;;;5018593;28;20180;-59
2021/09/10 05:37:00;;;;;;;19.83;11.93;;;14.50;99.90;;;;;;5022903;28;20196;-60
2021/09/10 05:39:26;;;;;;;14.77;10.47;;;14.50;99.90;;;;;;5023677;28;20179;-60
2021/09/10 05:41:51;;;;;;;14.03;10.23;;;14.50;99.90;;;;;;5019004;28;20695;-59
2021/09/10 05:44:18;;;;;;;15.10;10.43;;;14.60;99.90;;;;;;5021644;28;20225;-60
2021/09/10 05:46:44;;;;;;;17.93;10.47;;;14.60;99.90;;;;;;5023034;28;20207;-60
2021/09/10 05:49:10;;;;;;;17.13;12.00;;;14.60;99.90;;;;;;5003058;28;20892;-58
2021/09/10 05:51:36;;;;;;;14.90;11.73;;;14.70;99.90;;;;;;5023755;28;20857;-60
2021/09/10 05:54:02;;;;;;;16.20;11.20;;;14.70;99.90;;;;;;5026621;28;20422;-59
2021/09/10 05:56:27;;;;;;;20.27;11.40;;;14.70;99.90;;;;;;5024639;28;20805;-60
2021/09/10 05:58:53;;;;;;;15.00;11.27;;;14.70;99.90;;;;;;5024410;28;20868;-60
2021/09/10 06:01:19;;;;;;;16.00;11.13;;;14.70;99.90;;;;;;5004300;28;20176;-59
2021/09/10 06:03:44;;;;;;;18.03;11.70;;;14.70;99.90;;;;;;5006077;28;20180;-59
2021/09/10 06:06:10;;;;;;;16.20;11.57;;;14.70;99.90;;;;;;5025184;28;20605;-60
2021/09/10 06:08:37;;;;;;;15.30;11.07;;;14.80;99.90;;;;;;5004299;28;20672;-58
2021/09/10 06:11:03;;;;;;;13.10;10.57;;;14.80;99.90;;;;;;5003170;28;20188;-59
2021/09/10 06:13:29;;;;;;;15.60;11.67;;;14.80;99.90;;;;;;5008057;28;20840;-61
2021/09/10 06:15:55;;;;;;;14.43;11.50;;;14.90;99.90;;;;;;5025156;28;20442;-60
2021/09/10 06:18:20;;;;;;;20.37;11.57;;;14.90;99.90;;;;;;5002306;28;20191;-60
2021/09/10 06:20:46;;;;;;;18.40;11.57;;;15.00;99.90;;;;;;5020554;28;20179;-60
2021/09/10 06:23:12;;;;;;;19.20;12.50;;;15.00;99.90;;;;;;5024907;28;20245;-59
2021/09/10 06:25:37;;;;;;;15.30;11.07;;;15.10;99.90;;;;;;5020328;28;20207;-61
2021/09/10 06:28:03;;;;;;;24.80;12.70;;;15.10;99.90;;;;;;5027573;28;20191;-60
2021/09/10 06:30:29;;;;;;;16.50;11.00;;;15.20;99.90;;;;;;5025176;28;20182;-60
2021/09/10 06:32:55;;;;;;;20.83;11.90;;;15.20;99.90;;;;;;5028085;28;20431;-61
2021/09/10 06:35:22;;;;;;;23.73;12.27;;;15.20;99.90;;;;;;5026786;28;20192;-62
2021/09/10 06:37:48;;;;;;;22.70;12.30;;;15.20;99.90;;;;;;5031137;28;20284;-61
2021/09/10 06:40:14;;;;;;;20.00;12.70;;;15.20;99.90;;;;;;5029480;28;20494;-60
2021/09/10 06:42:42;;;;;;;20.83;11.17;;;15.30;99.90;;;;;;5028862;28;20227;-61
2021/09/10 06:45:08;;;;;;;22.00;12.60;;;15.30;99.90;;;;;;5025770;28;20535;-61
2021/09/10 06:47:34;;;;;;;18.77;12.30;;;15.30;99.90;;;;;;5026216;28;20441;-60
2021/09/10 06:50:02;;;;;;;19.83;12.23;;;15.40;99.90;;;;;;5028593;28;20634;-61
2021/09/10 06:52:28;;;;;;;18.77;11.83;;;15.40;99.90;;;;;;5027182;28;20226;-62
2021/09/10 06:54:53;;;;;;;17.90;12.10;;;15.50;99.90;;;;;;5026584;28;20477;-62
2021/09/10 06:57:19;;;;;;;16.23;11.67;;;15.50;99.90;;;;;;5031707;28;20184;-61
2021/09/10 06:59:44;;;;;;;15.93;11.87;;;15.50;99.90;;;;;;5024951;28;20195;-61
2021/09/10 07:02:10;;;;;;;16.10;11.70;;;15.60;99.90;;;;;;5018073;28;20176;-61
2021/09/10 07:04:36;;;;;;;16.50;12.20;;;15.60;99.90;;;;;;5024171;28;20176;-62
2021/09/10 07:07:02;;;;;;;22.20;12.37;;;15.60;99.90;;;;;;5027349;28;20195;-60
2021/09/10 07:09:28;;;;;;;16.00;11.90;;;15.60;99.90;;;;;;5029434;28;20199;-62
2021/09/10 07:11:53;;;;;;;21.30;14.03;;;15.60;99.90;;;;;;5026049;28;20462;-61
2021/09/10 07:14:19;;;;;;;19.23;13.67;;;15.70;99.90;;;;;;5032210;28;20183;-61
2021/09/10 07:16:45;;;;;;;21.13;13.70;;;15.70;99.90;;;;;;5026688;28;20196;-61
2021/09/10 07:19:10;;;;;;;20.33;14.00;;;15.80;99.90;;;;;;5030749;28;20172;-61
2021/09/10 07:21:36;;;;;;;23.33;14.73;;;15.80;99.90;;;;;;5028970;28;20175;-61
2021/09/10 07:24:04;;;;;;;23.90;15.30;;;15.80;99.90;;;;;;5025951;28;20173;-61
2021/09/10 07:26:31;;;;;;;28.60;14.97;;;15.90;99.90;;;;;;5026955;28;20200;-56
2021/09/10 07:28:57;;;;;;;28.53;15.10;;;15.90;99.90;;;;;;5023208;28;20910;-61
2021/09/10 07:31:22;;;;;;;22.67;14.53;;;15.90;99.90;;;;;;5009112;28;20438;-61
2021/09/10 07:33:48;;;;;;;26.77;15.20;;;16.00;99.90;;;;;;5030521;28;20188;-60
2021/09/10 07:36:14;;;;;;;22.40;15.37;;;16.10;99.90;;;;;;5020583;28;20208;-61
2021/09/10 07:38:39;;;;;;;25.07;17.30;;;16.10;99.90;;;;;;5025453;28;20172;-62
2021/09/10 07:41:05;;;;;;;23.73;15.23;;;16.10;99.90;;;;;;5027486;28;20176;-61
2021/09/10 07:43:32;;;;;;;28.97;15.60;;;16.10;99.90;;;;;;5027092;28;20529;-61
2021/09/10 07:45:57;;;;;;;20.30;15.37;;;16.20;99.90;;;;;;5039999;22;20239;-59
2021/09/10 07:48:23;;;;;;;26.70;17.40;;;16.20;99.90;;;;;;5029048;28;20464;-60
2021/09/10 07:50:48;;;;;;;20.87;15.70;;;16.30;99.90;;;;;;5024795;28;20164;-58
2021/09/10 07:53:14;;;;;;;27.43;16.30;;;16.30;99.90;;;;;;5023420;28;20207;-60
2021/09/10 07:55:40;;;;;;;23.90;15.83;;;16.40;99.90;;;;;;5008050;28;20227;-59
2021/09/10 07:58:05;;;;;;;27.63;16.63;;;16.40;99.90;;;;;;5028314;28;20188;-59
2021/09/10 08:00:31;;;;;;;23.50;14.97;;;16.40;99.90;;;;;;5029042;28;20176;-59
2021/09/10 08:02:57;;;;;;;23.47;16.23;;;16.40;99.90;;;;;;5028050;28;20187;-59
2021/09/10 08:05:22;;;;;;;22.00;15.40;;;16.50;99.90;;;;;;5026578;28;20270;-58
2021/09/10 08:07:48;;;;;;;30.10;16.73;;;16.50;99.90;;;;;;5026338;28;20231;-59
2021/09/10 08:10:15;;;;;;;22.57;14.80;;;16.60;99.90;;;;;;5027196;28;20176;-61
2021/09/10 08:12:42;;;;;;;26.80;15.13;;;16.60;99.90;;;;;;5006847;28;20168;-61
2021/09/10 08:15:08;;;;;;;26.57;13.83;;;16.70;99.90;;;;;;5019153;28;20422;-58
2021/09/10 08:17:34;;;;;;;19.67;14.60;;;16.70;99.90;;;;;;5008624;28;20427;-60
2021/09/10 08:19:59;;;;;;;26.30;14.07;;;16.80;99.90;;;;;;5026202;28;20438;-58
2021/09/10 08:22:25;;;;;;;24.83;14.73;;;16.80;99.90;;;;;;5025566;28;20194;-61
2021/09/10 08:24:51;;;;;;;18.63;14.37;;;16.90;99.90;;;;;;5021991;28;21149;-59
2021/09/10 08:27:16;;;;;;;22.23;15.20;;;16.90;99.90;;;;;;5024595;28;20227;-58
2021/09/10 08:29:42;;;;;;;22.07;14.70;;;17.00;99.90;;;;;;5025918;28;20679;-60
2021/09/10 08:32:08;;;;;;;22.87;15.50;;;17.00;99.90;;;;;;5021465;28;20171;-61
2021/09/10 08:34:36;;;;;;;23.80;14.90;;;17.10;99.90;;;;;;5024828;28;20187;-58
2021/09/10 08:37:01;;;;;;;27.37;15.40;;;17.20;99.90;;;;;;5022724;28;20189;-59
2021/09/10 08:39:27;;;;;;;20.43;15.20;;;17.20;99.90;;;;;;5029521;28;21000;-59
2021/09/10 08:41:53;;;;;;;22.13;14.83;;;17.30;99.90;;;;;;5028560;28;20172;-59
2021/09/10 08:44:18;;;;;;;25.20;14.87;;;17.30;99.90;;;;;;4992243;28;20278;-59
2021/09/10 08:46:45;;;;;;;23.20;14.80;;;17.40;99.90;;;;;;5019090;28;20207;-60
2021/09/10 08:49:14;;;;;;;26.70;16.00;;;17.50;99.90;;;;;;5017860;28;20207;-59
2021/09/10 08:51:40;;;;;;;21.73;13.90;;;17.60;99.90;;;;;;5016209;28;20458;-59
2021/09/10 08:54:06;;;;;;;28.03;14.60;;;17.60;99.90;;;;;;5018308;28;21127;-61
2021/09/10 08:56:32;;;;;;;27.10;14.70;;;17.70;99.90;;;;;;5018042;28;20203;-59
2021/09/10 08:59:11;;;;;;;23.93;14.40;;;17.80;99.90;;;;;;5018695;28;20520;-61
2021/09/10 09:01:50;;;;;;;24.57;14.30;;;17.80;99.90;;;;;;5020678;28;20274;-59
2021/09/10 09:04:17;;;;;;;21.83;14.17;;;17.90;99.90;;;;;;5020870;28;20975;-59
2021/09/10 09:06:48;;;;;;;24.90;14.93;;;17.90;99.90;;;;;;5021985;28;20486;-63
2021/09/10 09:09:14;;;;;;;20.90;14.40;;;17.90;99.90;;;;;;5022233;28;20430;-58
2021/09/10 09:11:40;;;;;;;22.00;12.93;;;18.00;99.90;;;;;;5020369;28;20476;-60
2021/09/10 09:14:06;;;;;;;21.70;14.43;;;18.00;99.90;;;;;;5003666;28;20736;-60
2021/09/10 09:16:32;;;;;;;26.93;13.60;;;18.00;99.90;;;;;;5021187;28;20192;-59
2021/09/10 09:19:03;;;;;;;20.50;13.30;;;18.10;99.90;;;;;;5022261;28;20435;-60
2021/09/10 09:21:30;;;;;;;17.40;12.70;;;18.10;99.90;;;;;;5023313;28;20807;-59
2021/09/10 09:23:58;;;;;;;18.37;13.10;;;18.20;99.90;;;;;;5017473;28;20549;-60
2021/09/10 09:26:27;;;;;;;18.70;13.33;;;18.30;99.90;;;;;;5017808;28;20473;-60
2021/09/10 09:29:11;;;;;;;21.80;13.10;;;18.40;99.90;;;;;;5017523;28;21076;-59
2021/09/10 09:31:38;;;;;;;18.37;13.93;;;18.40;99.90;;;;;;5016200;28;20473;-59
2021/09/10 09:34:05;;;;;;;25.07;12.20;;;18.50;99.90;;;;;;5005401;28;20541;-58
2021/09/10 09:36:31;;;;;;;18.00;12.93;;;18.60;99.90;;;;;;5020283;28;21035;-61
2021/09/10 09:39:07;;;;;;;19.40;13.40;;;18.70;99.90;;;;;;5020786;28;20520;-61
2021/09/10 09:41:45;;;;;;;18.77;12.00;;;18.70;99.90;;;;;;5013575;28;20736;-59
2021/09/10 09:44:15;;;;;;;20.70;12.67;;;18.80;99.90;;;;;;5020634;28;20434;-59
2021/09/10 09:46:41;;;;;;;17.43;11.27;;;18.80;99.90;;;;;;5016462;28;20469;-60
2021/09/10 09:49:15;;;;;;;16.20;11.27;;;18.90;99.90;;;;;;5015221;28;20853;-60
2021/09/10 09:51:58;;;;;;;17.87;11.10;;;19.00;99.70;;;;;;5013983;28;20434;-59
2021/09/10 09:54:24;;;;;;;17.07;10.87;;;19.10;99.30;;;;;;5011183;28;21217;-58
2021/09/10 09:56:51;;;;;;;14.67;11.40;;;19.10;98.10;;;;;;5013771;28;21335;-59
2021/09/10 09:59:18;;;;;;;12.30;9.50;;;19.10;98.00;;;;;;5008542;28;20438;-59
2021/09/10 10:01:44;;;;;;;17.47;11.10;;;19.20;98.40;;;;;;5008865;28;20496;-59
2021/09/10 10:04:10;;;;;;;21.33;10.60;;;19.30;98.50;;;;;;5010285;28;20439;-60
2021/09/10 10:06:37;;;;;;;11.60;9.90;;;19.40;99.10;;;;;;4998807;28;20457;-60
2021/09/10 10:09:13;;;;;;;13.03;10.00;;;19.50;98.80;;;;;;5015363;28;20195;-59
2021/09/10 10:11:55;;;;;;;16.97;10.50;;;19.60;96.30;;;;;;5019918;28;20434;-58
2021/09/10 10:14:39;;;;;;;12.80;9.10;;;19.60;95.50;;;;;;5014579;28;20443;-60
2021/09/10 10:17:25;;;;;;;12.13;8.50;;;19.60;94.90;;;;;;5019859;28;20438;-58
2021/09/10 10:19:51;;;;;;;11.90;9.23;;;19.60;94.30;;;;;;5020384;28;20985;-59
2021/09/10 10:22:35;;;;;;;11.80;8.70;;;19.70;95.30;;;;;;5018664;28;20454;-59
2021/09/10 10:25:01;;;;;;;14.93;8.60;;;19.80;93.30;;;;;;5019975;28;20446;-58
2021/09/10 10:27:37;;;;;;;12.03;8.60;;;19.80;91.10;;;;;;4999839;28;20462;-59
2021/09/10 10:30:18;;;;;;;10.33;8.27;;;19.80;90.70;;;;;;5010848;28;20509;-59
2021/09/10 10:32:49;;;;;;;11.40;8.80;;;19.80;90.30;;;;;;5018316;28;20458;-58
2021/09/10 10:35:22;;;;;;;11.50;7.57;;;19.80;90.00;;;;;;5021080;28;20524;-60
2021/09/10 10:38:08;;;;;;;9.40;7.93;;;19.90;89.10;;;;;;5020414;28;21137;-58
2021/09/10 10:40:38;;;;;;;10.77;8.40;;;19.90;87.80;;;;;;5009975;28;21452;-58
2021/09/10 10:43:10;;;;;;;10.90;8.40;;;20.00;88.60;;;;;;5011622;28;20705;-57
2021/09/10 10:45:41;;;;;;;11.67;8.63;;;20.10;86.80;;;;;;5011633;28;20541;-60
2021/09/10 10:48:35;;;;;;;10.60;8.57;;;20.10;86.60;;;;;;5014261;28;20460;-59
2021/09/10 10:51:04;;;;;;;12.83;8.97;;;20.10;87.90;;;;;;5017249;28;20430;-58
2021/09/10 10:53:48;;;;;;;9.70;8.50;;;20.20;87.90;;;;;;5020493;28;20997;-58
2021/09/10 10:56:28;;;;;;;10.50;7.63;;;20.20;87.60;;;;;;5019564;28;20461;-58
2021/09/10 10:59:12;;;;;;;10.03;8.67;;;20.20;86.50;;;;;;5016910;28;20954;-60
2021/09/10 11:02:15;;;;;;;9.97;8.13;;;20.10;87.30;;;;;;5014924;28;21369;-60
2021/09/10 11:04:47;;;;;;;12.27;9.20;;;20.10;88.80;;;;;;5016648;28;20604;-59
2021/09/10 11:07:13;;;;;;;11.50;8.33;;;20.00;89.50;;;;;;5016496;28;20678;-60
2021/09/10 11:09:39;;;;;;;13.60;9.70;;;20.00;90.90;;;;;;5018557;28;20454;-59
2021/09/10 11:12:05;;;;;;;10.93;9.30;;;19.90;90.60;;;;;;5023649;28;20422;-59
2021/09/10 11:14:32;;;;;;;10.63;8.40;;;19.90;91.50;;;;;;5016921;28;20423;-58
2021/09/10 11:17:12;;;;;;;11.20;9.13;;;19.90;92.50;;;;;;5019468;28;21186;-58
2021/09/10 11:19:43;;;;;;;11.37;8.93;;;19.90;93.20;;;;;;4999736;28;20864;-58
2021/09/10 11:22:09;;;;;;;11.40;9.40;;;19.80;93.90;;;;;;5018925;28;20434;-57
2021/09/10 11:24:35;;;;;;;11.97;8.43;;;19.80;94.60;;;;;;5025166;28;20418;-58
2021/09/10 11:27:00;;;;;;;10.67;8.20;;;19.70;94.20;;;;;;5022575;28;20204;-58
2021/09/10 11:29:37;;;;;;;13.83;9.10;;;19.70;94.70;;;;;;5025090;28;20186;-59
2021/09/10 11:32:25;;;;;;;11.07;8.87;;;19.70;95.50;;;;;;5020770;28;20178;-57
2021/09/10 11:34:53;;;;;;;10.57;8.60;;;19.70;95.60;;;;;;5017045;28;20500;-60
2021/09/10 11:37:30;;;;;;;10.83;8.87;;;19.60;95.20;;;;;;5021047;28;21027;-57
2021/09/10 11:39:56;;;;;;;10.50;9.47;;;19.60;95.70;;;;;;5020407;28;21229;-59
2021/09/10 11:42:37;;;;;;;12.50;10.13;;;19.70;96.50;;;;;;5019511;28;20434;-61
2021/09/10 11:45:12;;;;;;;12.30;9.90;;;19.70;97.60;;;;;;5021151;28;20460;-58
2021/09/10 11:47:40;;;;;;;12.80;9.17;;;19.70;97.30;;;;;;5018846;28;20457;-58
2021/09/10 11:50:09;;;;;;;13.63;10.20;;;19.70;94.40;;;;;;5018779;28;20518;-57
2021/09/10 11:52:37;;;;;;;15.30;9.80;;;19.80;95.50;;;;;;5013203;28;21058;-60
2021/09/10 11:55:14;;;;;;;14.67;9.20;;;19.80;96.10;;;;;;5021913;28;20442;-59
2021/09/10 11:57:41;;;;;;;12.80;9.93;;;19.80;96.10;;;;;;5019715;28;20493;-60
2021/09/10 12:00:23;;;;;;;26.63;9.80;;;19.90;96.30;;;;;;5022756;28;20521;-58
2021/09/10 12:02:56;;;;;;;14.47;10.77;;;20.00;96.30;;;;;;5004915;28;20431;-59
2021/09/10 12:05:22;;;;;;;11.93;9.63;;;20.00;96.50;;;;;;5024110;28;20962;-59
2021/09/10 12:07:50;;;;;;;12.47;10.10;;;20.20;96.70;;;;;;5020801;28;20462;-57
2021/09/10 12:10:33;;;;;;;12.10;10.00;;;20.20;95.60;;;;;;5021221;28;20464;-59
2021/09/10 12:13:10;;;;;;;10.33;9.20;;;20.40;94.40;;;;;;5019484;28;21251;-59
2021/09/10 12:15:37;;;;;;;11.07;9.03;;;20.40;93.70;;;;;;5002707;28;20478;-59
2021/09/10 12:18:13;;;;;;;16.10;9.10;;;20.60;94.10;;;;;;5001612;28;21320;-58
2021/09/10 12:20:40;;;;;;;11.87;9.40;;;20.70;91.90;;;;;;5022330;28;20499;-59
2021/09/10 12:23:06;;;;;;;12.30;9.47;;;20.90;90.90;;;;;;5022780;28;21188;-59
2021/09/10 12:25:45;;;;;;;10.63;8.87;;;21.30;89.70;;;;;;5019224;28;20464;-60
2021/09/10 12:28:17;;;;;;;10.57;8.90;;;21.60;82.70;;;;;;5021720;28;20507;-59
2021/09/10 12:30:54;;;;;;;24.63;9.40;;;21.90;80.00;;;;;;5020969;28;20759;-58
2021/09/10 12:33:22;;;;;;;11.83;8.90;;;22.10;78.00;;;;;;5020678;28;20437;-59